createdAt,value
2022-10-30T00:00:22.446Z,23.30
2022-10-30T00:02:49.067Z,23.30
2022-10-30T00:05:15.923Z,23.30
2022-10-30T00:07:42.561Z,23.30
2022-10-30T00:10:09.346Z,23.20
2022-10-30T00:12:35.945Z,23.30
2022-10-30T00:15:02.530Z,23.30
2022-10-30T00:17:29.078Z,23.30
2022-10-30T00:19:55.649Z,23.20
2022-10-30T00:22:22.218Z,23.20
2022-10-30T00:24:48.820Z,23.20
2022-10-30T00:27:15.376Z,23.20
2022-10-30T00:29:42.150Z,23.20
2022-10-30T00:32:14.030Z,23.20
2022-10-30T00:34:49.987Z,23.20
2022-10-30T00:37:23.844Z,23.20
2022-10-30T00:39:52.788Z,23.20
2022-10-30T00:42:32.737Z,23.20
2022-10-30T00:45:13.354Z,23.20
2022-10-30T00:47:46.092Z,23.20
2022-10-30T00:53:04.653Z,23.50
2022-10-30T00:55:39.178Z,23.60
2022-10-30T00:58:11.703Z,23.80
2022-10-30T01:00:46.380Z,23.90
2022-10-30T01:03:20.652Z,23.90
2022-10-30T01:05:57.474Z,23.80
2022-10-30T01:08:28.920Z,23.80
2022-10-30T01:10:58.534Z,23.80
2022-10-30T01:13:29.575Z,23.70
2022-10-30T01:16:07.683Z,23.60
2022-10-30T01:18:55.622Z,23.60
2022-10-30T01:21:44.686Z,23.50
2022-10-30T01:24:40.609Z,23.50
2022-10-30T01:27:12.729Z,23.50
2022-10-30T01:29:48.737Z,23.40
2022-10-30T01:32:20.646Z,23.40
2022-10-30T01:35:09.967Z,23.40
2022-10-30T01:37:43.570Z,23.30
2022-10-30T01:40:16.454Z,23.30
2022-10-30T01:53:11.010Z,23.30
2022-10-30T01:55:41.555Z,23.20
2022-10-30T01:58:11.231Z,23.20
2022-10-30T02:00:38.303Z,23.20
2022-10-30T02:03:05.305Z,23.20
2022-10-30T02:05:33.583Z,23.20
2022-10-30T02:08:00.558Z,23.20
2022-10-30T02:10:27.495Z,23.20
2022-10-30T02:12:54.095Z,23.10
2022-10-30T02:15:20.643Z,23.10
2022-10-30T02:17:47.274Z,23.20
2022-10-30T02:20:17.862Z,23.20
2022-10-30T02:22:44.630Z,23.10
2022-10-30T02:25:11.331Z,23.10
2022-10-30T02:27:37.985Z,23.20
2022-10-30T02:30:04.797Z,23.20
2022-10-30T02:32:31.394Z,23.30
2022-10-30T02:34:57.954Z,23.40
2022-10-30T02:37:24.608Z,23.60
2022-10-30T02:39:51.172Z,23.70
2022-10-30T02:42:17.825Z,23.80
2022-10-30T02:44:44.388Z,23.90
2022-10-30T02:47:10.969Z,23.90
2022-10-30T02:49:37.538Z,23.80
2022-10-30T02:52:04.188Z,23.80
2022-10-30T02:54:30.765Z,23.70
2022-10-30T02:56:57.320Z,23.60
2022-10-30T02:59:23.895Z,23.60
2022-10-30T03:01:50.522Z,23.60
2022-10-30T03:04:17.177Z,23.50
2022-10-30T03:06:43.722Z,23.50
2022-10-30T03:09:10.275Z,23.40
2022-10-30T03:11:36.824Z,23.40
2022-10-30T03:14:03.385Z,23.40
2022-10-30T03:16:30.693Z,23.40
2022-10-30T03:18:57.431Z,23.40
2022-10-30T03:21:24.370Z,23.30
2022-10-30T03:23:51.001Z,23.30
2022-10-30T03:26:17.649Z,23.30
2022-10-30T03:28:44.190Z,23.30
2022-10-30T03:31:11.752Z,23.30
2022-10-30T03:33:38.359Z,23.20
2022-10-30T03:36:05.354Z,23.20
2022-10-30T03:38:32.038Z,23.20
2022-10-30T03:40:58.589Z,23.20
2022-10-30T03:43:25.150Z,23.20
2022-10-30T03:45:52.795Z,23.20
2022-10-30T03:48:21.594Z,23.20
2022-10-30T03:50:48.160Z,23.20
2022-10-30T03:53:14.747Z,23.20
2022-10-30T03:55:41.447Z,23.20
2022-10-30T03:58:08.031Z,23.20
2022-10-30T04:00:34.721Z,23.10
2022-10-30T04:03:01.746Z,23.20
2022-10-30T04:05:28.646Z,23.10
2022-10-30T04:07:55.938Z,23.10
2022-10-30T04:10:23.899Z,23.10
2022-10-30T04:12:53.992Z,23.10
2022-10-30T04:15:25.186Z,23.10
2022-10-30T04:17:57.121Z,23.20
2022-10-30T04:20:32.285Z,23.40
2022-10-30T04:23:13.978Z,23.50
2022-10-30T04:25:51.522Z,23.60
2022-10-30T04:28:27.520Z,23.80
2022-10-30T04:30:59.286Z,23.90
2022-10-30T04:33:33.511Z,23.90
2022-10-30T04:36:07.721Z,23.80
2022-10-30T04:38:36.254Z,23.70
2022-10-30T04:41:06.680Z,23.70
2022-10-30T04:43:36.648Z,23.60
2022-10-30T04:46:08.405Z,23.50
2022-10-30T04:48:48.968Z,23.50
2022-10-30T04:51:17.554Z,23.40
2022-10-30T04:53:47.981Z,23.40
2022-10-30T04:56:24.352Z,23.40
2022-10-30T04:58:58.512Z,23.40
2022-10-30T05:01:30.073Z,23.40
2022-10-30T05:04:01.824Z,23.30
2022-10-30T05:06:39.725Z,23.30
2022-10-30T05:09:16.860Z,23.30
2022-10-30T05:11:48.675Z,23.30
2022-10-30T05:14:17.911Z,23.30
2022-10-30T05:16:49.523Z,23.20
2022-10-30T05:19:23.536Z,23.20
2022-10-30T05:21:52.427Z,23.20
2022-10-30T05:24:23.469Z,23.20
2022-10-30T05:26:55.278Z,23.20
2022-10-30T05:29:32.311Z,23.20
2022-10-30T05:32:07.387Z,23.10
2022-10-30T05:34:46.068Z,23.20
2022-10-30T05:37:17.210Z,23.10
2022-10-30T05:39:48.921Z,23.10
2022-10-30T05:42:23.493Z,23.10
2022-10-30T05:45:02.086Z,23.10
2022-10-30T05:47:37.761Z,23.10
2022-10-30T05:50:11.877Z,23.10
2022-10-30T05:52:45.886Z,23.10
2022-10-30T05:55:17.031Z,23.10
2022-10-30T05:57:52.116Z,23.10
2022-10-30T06:00:42.512Z,23.10
2022-10-30T06:03:14.678Z,23.10
2022-10-30T06:05:50.924Z,23.20
2022-10-30T06:08:19.680Z,23.30
2022-10-30T06:10:50.927Z,23.50
2022-10-30T06:13:20.163Z,23.60
2022-10-30T06:15:50.911Z,23.70
2022-10-30T06:18:19.703Z,23.80
2022-10-30T06:20:57.295Z,23.80
2022-10-30T06:23:38.475Z,23.70
2022-10-30T06:26:20.217Z,23.70
2022-10-30T06:33:14.480Z,23.60
2022-10-30T06:35:12.606Z,23.50
2022-10-30T06:37:59.675Z,23.40
2022-10-30T06:40:32.813Z,23.40
2022-10-30T06:43:15.224Z,23.40
2022-10-30T06:45:49.946Z,23.40
2022-10-30T06:51:18.602Z,23.30
2022-10-30T06:53:59.423Z,23.30
2022-10-30T06:56:50.433Z,23.20
2022-10-30T06:59:26.799Z,23.20
2022-10-30T07:02:06.992Z,23.20
2022-10-30T07:04:37.661Z,23.20
2022-10-30T07:07:12.624Z,23.20
2022-10-30T07:12:42.405Z,23.20
2022-10-30T07:15:29.096Z,23.20
2022-10-30T07:18:13.520Z,23.10
2022-10-30T07:21:08.883Z,23.10
2022-10-30T07:23:57.381Z,23.10
2022-10-30T07:26:53.230Z,23.10
2022-10-30T07:29:39.558Z,23.10
2022-10-30T07:32:18.124Z,23.10
2022-10-30T07:35:01.605Z,23.10
2022-10-30T07:37:44.168Z,23.10
2022-10-30T07:40:37.688Z,23.10
2022-10-30T07:43:22.860Z,23.10
2022-10-30T07:45:58.870Z,23.10
2022-10-30T07:48:32.367Z,23.00
2022-10-30T07:51:21.534Z,23.10
2022-10-30T07:53:53.396Z,23.20
2022-10-30T07:56:37.393Z,23.30
2022-10-30T07:59:14.833Z,23.40
2022-10-30T08:01:49.652Z,23.60
2022-10-30T08:04:30.687Z,23.70
2022-10-30T08:07:05.774Z,23.70
2022-10-30T08:09:46.978Z,23.70
2022-10-30T08:12:29.259Z,23.70
2022-10-30T08:15:05.936Z,23.60
2022-10-30T08:17:48.599Z,23.60
2022-10-30T08:23:26.829Z,23.60
2022-10-30T08:25:58.074Z,23.60
2022-10-30T08:28:32.941Z,23.60
2022-10-30T08:31:19.051Z,23.60
2022-10-30T08:34:14.924Z,23.60
2022-10-30T08:37:25.749Z,23.60
2022-10-30T08:43:20.366Z,23.60
2022-10-30T08:46:02.567Z,23.60
2022-10-30T08:49:25.887Z,23.50
2022-10-30T08:52:05.306Z,23.50
2022-10-30T08:54:45.428Z,23.50
2022-10-30T08:57:27.685Z,23.40
2022-10-30T09:00:09.614Z,23.40
2022-10-30T09:02:49.481Z,23.50
2022-10-30T09:05:42.590Z,23.40
2022-10-30T09:08:46.114Z,23.40
2022-10-30T09:21:42.343Z,23.40
2022-10-30T09:24:20.807Z,23.40
2022-10-30T09:26:59.889Z,23.40
2022-10-30T09:29:44.000Z,23.40
2022-10-30T09:35:21.759Z,23.40
2022-10-30T09:44:30.422Z,23.60
2022-10-30T09:47:06.433Z,23.70
2022-10-30T09:49:47.353Z,23.90
2022-10-30T09:52:39.540Z,24.00
2022-10-30T09:55:35.464Z,24.00
2022-10-30T09:58:06.426Z,24.10
2022-10-30T10:01:18.341Z,24.00
2022-10-30T10:04:14.538Z,24.00
2022-10-30T10:07:22.545Z,23.90
2022-10-30T10:09:57.545Z,23.80
2022-10-30T10:12:44.314Z,23.80
2022-10-30T10:15:39.906Z,23.80
2022-10-30T10:18:14.277Z,23.80
2022-10-30T10:20:46.141Z,23.70
2022-10-30T10:23:36.121Z,23.80
2022-10-30T10:26:15.093Z,23.70
2022-10-30T10:28:53.207Z,23.70
2022-10-30T10:31:23.338Z,23.70
2022-10-30T10:33:56.828Z,23.70
2022-10-30T10:36:43.357Z,23.70
2022-10-30T10:39:16.100Z,23.70
2022-10-30T10:41:55.041Z,23.60
2022-10-30T10:44:37.487Z,23.70
2022-10-30T10:47:22.832Z,23.60
2022-10-30T10:49:59.295Z,23.60
2022-10-30T10:52:29.850Z,23.60
2022-10-30T10:54:57.705Z,23.60
2022-10-30T10:57:26.363Z,23.60
2022-10-30T10:59:54.316Z,23.60
2022-10-30T11:02:35.405Z,23.60
2022-10-30T11:05:05.000Z,23.60
2022-10-30T11:07:32.558Z,23.80
2022-10-30T11:09:59.162Z,23.90
2022-10-30T11:12:30.820Z,24.00
2022-10-30T11:15:01.790Z,24.10
2022-10-30T11:17:33.936Z,24.20
2022-10-30T11:20:11.969Z,24.30
2022-10-30T11:22:38.620Z,24.30
2022-10-30T11:25:20.692Z,24.30
2022-10-30T11:27:48.158Z,24.10
2022-10-30T11:30:18.843Z,24.10
2022-10-30T11:35:17.782Z,24.10
2022-10-30T11:37:44.910Z,24.00
2022-10-30T11:40:11.444Z,24.00
2022-10-30T11:42:58.521Z,24.00
2022-10-30T11:45:25.278Z,24.00
2022-10-30T11:47:51.824Z,23.90
2022-10-30T11:50:20.000Z,23.90
2022-10-30T11:52:46.633Z,23.80
2022-10-30T11:55:18.000Z,23.80
2022-10-30T11:57:51.405Z,23.80
2022-10-30T12:00:19.719Z,23.80
2022-10-30T12:02:46.949Z,23.80
2022-10-30T12:05:25.706Z,23.80
2022-10-30T12:07:52.573Z,23.70
2022-10-30T12:10:29.479Z,23.70
2022-10-30T12:12:56.264Z,23.70
2022-10-30T12:15:26.434Z,23.80
2022-10-30T12:18:16.396Z,23.90
2022-10-30T12:20:42.958Z,24.00
2022-10-30T12:23:09.943Z,24.20
2022-10-30T12:25:36.502Z,24.30
2022-10-30T12:28:06.291Z,24.40
2022-10-30T12:30:33.643Z,24.40
2022-10-30T12:33:01.894Z,24.40
2022-10-30T12:35:31.534Z,24.30
2022-10-30T12:37:58.341Z,24.30
2022-10-30T12:40:26.659Z,24.30
2022-10-30T12:43:03.961Z,24.30
2022-10-30T12:45:30.517Z,24.20
2022-10-30T12:48:05.660Z,24.30
2022-10-30T12:50:37.350Z,24.10
2022-10-30T12:53:08.478Z,24.10
2022-10-30T12:55:42.292Z,24.10
2022-10-30T12:58:10.873Z,24.00
2022-10-30T13:00:39.006Z,24.00
2022-10-30T13:03:10.852Z,24.00
2022-10-30T13:05:39.844Z,24.00
2022-10-30T13:08:10.568Z,24.00
2022-10-30T13:10:44.502Z,23.90
2022-10-30T13:13:30.344Z,23.90
2022-10-30T13:15:57.696Z,23.90
2022-10-30T13:18:25.070Z,23.90
2022-10-30T13:21:07.018Z,23.90
2022-10-30T13:23:36.946Z,23.90
2022-10-30T13:26:03.525Z,24.10
2022-10-30T13:28:33.736Z,24.20
2022-10-30T13:31:02.088Z,24.30
2022-10-30T13:33:37.098Z,24.40
2022-10-30T13:36:09.788Z,24.50
2022-10-30T13:38:51.543Z,24.50
2022-10-30T13:41:18.068Z,24.40
2022-10-30T13:43:53.995Z,24.40
2022-10-30T13:46:33.003Z,24.40
2022-10-30T13:49:05.788Z,24.30
2022-10-30T13:51:33.970Z,24.30
2022-10-30T13:54:05.856Z,24.30
2022-10-30T13:56:32.523Z,24.20
2022-10-30T13:59:03.321Z,24.20
2022-10-30T14:01:34.792Z,24.10
2022-10-30T14:04:05.246Z,24.10
2022-10-30T14:06:40.923Z,24.10
2022-10-30T14:09:13.698Z,24.10
2022-10-30T14:11:40.288Z,24.00
2022-10-30T14:14:12.903Z,24.00
2022-10-30T14:16:45.904Z,24.00
2022-10-30T14:19:13.147Z,24.00
2022-10-30T14:21:55.424Z,24.00
2022-10-30T14:24:29.118Z,23.90
2022-10-30T14:27:09.117Z,24.00
2022-10-30T14:29:35.734Z,23.90
2022-10-30T14:32:02.269Z,23.90
2022-10-30T14:34:41.649Z,24.00
2022-10-30T14:37:08.214Z,24.10
2022-10-30T14:39:41.664Z,24.20
2022-10-30T14:42:34.810Z,24.30
2022-10-30T14:45:13.627Z,24.50
2022-10-30T14:47:55.544Z,24.50
2022-10-30T14:50:28.199Z,24.40
2022-10-30T14:53:13.713Z,24.40
2022-10-30T14:55:48.440Z,24.40
2022-10-30T14:58:16.199Z,24.40
2022-10-30T15:00:42.910Z,24.30
2022-10-30T15:03:13.507Z,24.30
2022-10-30T15:05:49.181Z,24.30
2022-10-30T15:08:24.509Z,24.20
2022-10-30T15:11:03.946Z,24.20
2022-10-30T15:13:30.487Z,24.10
2022-10-30T15:16:00.574Z,24.10
2022-10-30T15:18:30.478Z,24.10
2022-10-30T15:20:58.153Z,24.00
2022-10-30T15:23:29.412Z,24.00
2022-10-30T15:25:56.552Z,24.00
2022-10-30T15:31:11.635Z,24.00
2022-10-30T15:33:38.424Z,23.90
2022-10-30T15:36:05.261Z,23.90
2022-10-30T15:38:31.810Z,23.90
2022-10-30T15:40:59.071Z,24.10
2022-10-30T15:43:28.291Z,24.20
2022-10-30T15:45:54.855Z,24.30
2022-10-30T15:48:25.458Z,24.40
2022-10-30T15:51:03.414Z,24.50
2022-10-30T15:53:50.216Z,24.40
2022-10-30T15:56:22.539Z,24.50
2022-10-30T15:58:49.846Z,24.40
2022-10-30T16:01:32.766Z,24.40
2022-10-30T16:03:59.395Z,24.30
2022-10-30T16:06:30.066Z,24.30
2022-10-30T16:08:56.690Z,24.30
2022-10-30T16:11:23.395Z,24.20
2022-10-30T16:13:50.046Z,24.20
2022-10-30T16:16:21.144Z,24.20
2022-10-30T16:18:47.752Z,24.10
2022-10-30T16:21:15.903Z,24.10
2022-10-30T16:23:46.461Z,24.10
2022-10-30T16:26:22.366Z,24.10
2022-10-30T16:28:48.918Z,24.00
2022-10-30T16:31:16.053Z,24.00
2022-10-30T16:33:45.527Z,24.00
2022-10-30T16:36:14.865Z,24.00
2022-10-30T16:38:41.448Z,24.00
2022-10-30T16:41:08.160Z,23.90
2022-10-30T16:43:35.222Z,24.00
2022-10-30T16:46:14.129Z,24.00
2022-10-30T16:48:44.856Z,24.20
2022-10-30T16:51:13.757Z,24.30
2022-10-30T16:53:40.297Z,24.40
2022-10-30T16:56:13.038Z,24.50
2022-10-30T16:58:39.579Z,24.50
2022-10-30T17:01:06.374Z,24.50
2022-10-30T17:03:35.038Z,24.50
2022-10-30T17:06:02.486Z,24.50
2022-10-30T17:08:29.028Z,24.40
2022-10-30T17:10:59.045Z,24.40
2022-10-30T17:13:37.853Z,24.30
2022-10-30T17:16:25.090Z,24.20
2022-10-30T17:18:52.873Z,24.20
2022-10-30T17:21:20.296Z,24.20
2022-10-30T17:23:47.726Z,24.20
2022-10-30T17:26:14.401Z,24.10
2022-10-30T17:28:40.998Z,24.20
2022-10-30T17:31:26.525Z,24.10
2022-10-30T17:34:11.446Z,24.20
2022-10-30T17:36:38.097Z,24.10
2022-10-30T17:39:04.675Z,24.10
2022-10-30T17:41:31.293Z,24.10
2022-10-30T17:43:57.849Z,24.00
2022-10-30T17:46:24.488Z,24.00
2022-10-30T17:48:51.150Z,24.00
2022-10-30T17:51:17.780Z,24.10
2022-10-30T17:53:44.330Z,24.10
2022-10-30T17:56:12.600Z,24.20
2022-10-30T17:58:39.161Z,24.30
2022-10-30T18:01:06.774Z,24.50
2022-10-30T18:03:33.413Z,24.50
2022-10-30T18:06:01.209Z,24.50
2022-10-30T18:08:27.988Z,24.50
2022-10-30T18:10:54.542Z,24.50
2022-10-30T18:13:21.929Z,24.40
2022-10-30T18:15:51.890Z,24.40
2022-10-30T18:18:18.443Z,24.30
2022-10-30T18:20:45.131Z,24.30
2022-10-30T18:23:32.162Z,24.20
2022-10-30T18:26:06.203Z,24.20
2022-10-30T18:28:32.777Z,24.20
2022-10-30T18:31:01.091Z,24.10
2022-10-30T18:33:27.669Z,24.10
2022-10-30T18:35:54.997Z,24.10
2022-10-30T18:38:21.558Z,24.00
2022-10-30T18:40:48.153Z,24.00
2022-10-30T18:43:14.756Z,24.00
2022-10-30T18:45:41.848Z,24.00
2022-10-30T18:48:09.699Z,24.00
2022-10-30T18:50:36.380Z,23.90
2022-10-30T18:53:03.027Z,24.00
2022-10-30T18:55:32.511Z,24.00
2022-10-30T18:57:59.407Z,24.00
2022-10-30T19:00:34.965Z,24.10
2022-10-30T19:03:06.165Z,24.10
2022-10-30T19:05:32.787Z,24.40
2022-10-30T19:08:00.129Z,24.50
2022-10-30T19:10:27.123Z,24.50
2022-10-30T19:13:16.005Z,24.50
2022-10-30T19:15:44.393Z,24.40
2022-10-30T19:18:11.019Z,24.40
2022-10-30T19:21:02.816Z,24.40
2022-10-30T19:23:27.668Z,24.30
2022-10-30T19:25:54.498Z,24.30
2022-10-30T19:28:21.105Z,24.20
2022-10-30T19:30:51.275Z,24.20
2022-10-30T19:33:17.952Z,24.20
2022-10-30T19:35:44.556Z,24.10
2022-10-30T19:38:11.285Z,24.10
2022-10-30T19:40:38.997Z,24.10
2022-10-30T19:43:05.739Z,24.00
2022-10-30T19:45:32.841Z,24.00
2022-10-30T19:48:00.107Z,24.00
2022-10-30T19:50:30.757Z,24.00
2022-10-30T19:52:58.130Z,23.90
2022-10-30T19:55:25.636Z,23.90
2022-10-30T19:57:52.346Z,23.90
2022-10-30T20:00:39.231Z,23.90
2022-10-30T20:03:06.256Z,23.90
2022-10-30T20:05:37.150Z,23.90
2022-10-30T20:08:06.708Z,23.90
2022-10-30T20:10:37.059Z,23.80
2022-10-30T20:13:04.001Z,23.80
2022-10-30T20:15:30.613Z,23.80
2022-10-30T20:17:57.824Z,23.80
2022-10-30T20:20:28.522Z,23.90
2022-10-30T20:22:55.202Z,24.00
2022-10-30T20:25:22.366Z,24.10
2022-10-30T20:27:49.404Z,24.20
2022-10-30T20:30:22.280Z,24.30
2022-10-30T20:32:49.132Z,24.40
2022-10-30T20:35:16.342Z,24.40
2022-10-30T20:37:42.905Z,24.40
2022-10-30T20:40:13.429Z,24.30
2022-10-30T20:42:40.102Z,24.30
2022-10-30T20:45:06.978Z,24.30
2022-10-30T20:47:33.514Z,24.20
2022-10-30T20:50:00.068Z,24.10
2022-10-30T20:52:26.642Z,24.10
2022-10-30T20:54:53.223Z,24.10
2022-10-30T20:57:19.826Z,24.10
2022-10-30T20:59:46.361Z,24.00
2022-10-30T21:02:13.048Z,24.00
2022-10-30T21:04:39.706Z,24.00
2022-10-30T21:07:06.246Z,23.90
2022-10-30T21:09:32.795Z,23.90
2022-10-30T21:11:59.448Z,23.90
2022-10-30T21:14:25.981Z,23.90
2022-10-30T21:16:52.525Z,23.90
2022-10-30T21:19:19.085Z,23.80
2022-10-30T21:21:45.720Z,23.80
2022-10-30T21:24:12.259Z,23.80
2022-10-30T21:26:38.852Z,23.80
2022-10-30T21:29:05.457Z,23.80
2022-10-30T21:31:32.086Z,23.80
2022-10-30T21:33:58.639Z,23.80
2022-10-30T21:36:25.190Z,23.80
2022-10-30T21:38:51.759Z,23.70
2022-10-30T21:41:19.139Z,23.70
2022-10-30T21:43:52.316Z,23.70
2022-10-30T21:46:19.136Z,23.70
2022-10-30T21:48:45.722Z,23.70
2022-10-30T21:51:13.003Z,23.70
2022-10-30T21:53:39.612Z,23.70
2022-10-30T21:56:06.973Z,23.70
2022-10-30T21:58:33.584Z,23.80
2022-10-30T22:01:00.247Z,23.90
2022-10-30T22:03:26.829Z,24.00
2022-10-30T22:05:53.430Z,24.10
2022-10-30T22:08:20.095Z,24.20
2022-10-30T22:10:46.719Z,24.30
2022-10-30T22:13:13.275Z,24.30
2022-10-30T22:15:40.536Z,24.30
2022-10-30T22:18:07.155Z,24.30
2022-10-30T22:20:33.695Z,24.20
2022-10-30T22:23:00.243Z,24.20
2022-10-30T22:25:26.786Z,24.10
2022-10-30T22:27:53.381Z,24.00
2022-10-30T22:30:19.925Z,24.10
2022-10-30T22:32:46.478Z,24.00
2022-10-30T22:35:13.004Z,24.00
2022-10-30T22:37:39.576Z,24.00
2022-10-30T22:40:06.324Z,23.90
2022-10-30T22:42:34.793Z,23.90
2022-10-30T22:45:01.385Z,23.90
2022-10-30T22:47:28.007Z,23.80
2022-10-30T22:49:54.542Z,23.80
2022-10-30T22:52:21.081Z,23.80
2022-10-30T22:54:47.627Z,23.80
2022-10-30T22:57:14.230Z,23.80
2022-10-30T22:59:40.839Z,23.70
2022-10-30T23:02:07.437Z,23.70
2022-10-30T23:04:34.057Z,23.70
2022-10-30T23:07:00.618Z,23.70
2022-10-30T23:09:27.153Z,23.70
2022-10-30T23:11:53.717Z,23.70
2022-10-30T23:14:20.280Z,23.70
2022-10-30T23:16:46.829Z,23.60
2022-10-30T23:19:13.363Z,23.60
2022-10-30T23:21:39.922Z,23.70
2022-10-30T23:24:06.698Z,23.60
2022-10-30T23:26:33.785Z,23.60
2022-10-30T23:29:00.430Z,23.60
2022-10-30T23:31:30.984Z,23.60
2022-10-30T23:33:58.152Z,23.60
2022-10-30T23:36:24.738Z,23.60
2022-10-30T23:38:52.847Z,23.70
2022-10-30T23:41:22.790Z,23.80
2022-10-30T23:43:52.490Z,23.90
2022-10-30T23:46:19.042Z,24.10
2022-10-30T23:48:45.606Z,24.10
2022-10-30T23:51:12.153Z,24.20
2022-10-30T23:53:38.880Z,24.30
2022-10-30T23:56:05.708Z,24.20
2022-10-30T23:58:32.350Z,24.10
